Time;durP1;ratioP1;P1;durP2;ratioP2;P2;SDS_P1;SDS_P2;PMS_P1;PMS_P2;Temp;Humidity;BMP_temperature;BMP_pressure;BME280_temperature;BME280_humidity;BME280_pressure;Samples;Min_cycle;Max_cycle;Signal;HPM_P1;HPM_P2
2022/08/22 00:01:44;;;;;;;9.13;4.78;;;;;;;24.85;48.40;101754.66;4997193;28;20080;-64
2022/08/22 00:04:44;;;;;;;11.48;4.68;;;;;;;24.83;48.35;101746.03;4997865;28;20033;-64
2022/08/22 00:07:09;;;;;;;;;;;;;;;24.82;48.30;101745.22;4997623;28;20108;-64
2022/08/22 00:10:00;;;;;;;9.43;4.20;;;;;;;24.82;48.55;101739.06;4979422;28;20381;-64
2022/08/22 00:12:44;;;;;;;5.97;4.28;;;;;;;24.88;48.29;101748.94;4993431;28;20088;-65
2022/08/22 00:15:32;;;;;;;9.30;4.57;;;;;;;24.86;48.35;101745.66;4999125;28;20026;-64
2022/08/22 00:18:22;;;;;;;7.85;4.38;;;;;;;24.90;48.22;101754.91;4998307;28;20041;-64
2022/08/22 00:21:07;;;;;;;5.90;3.83;;;;;;;24.86;48.23;101745.66;4965594;28;20068;-64
2022/08/22 00:23:38;;;;;;;7.85;3.88;;;;;;;24.85;48.25;101746.69;4998174;28;20041;-64
2022/08/22 00:26:22;;;;;;;6.50;3.83;;;;;;;24.81;48.56;101745.41;4994118;28;21688;-64
2022/08/22 00:28:55;;;;;;;11.32;4.35;;;;;;;24.85;48.49;101744.84;4997280;28;20499;-64
2022/08/22 00:31:20;;;;;;;7.68;4.40;;;;;;;24.88;48.42;101754.28;4992492;28;22025;-64
2022/08/22 00:33:52;;;;;;;7.20;3.78;;;;;;;24.86;48.17;101746.47;4996336;28;20042;-64
2022/08/22 00:36:30;;;;;;;6.95;4.05;;;;;;;24.87;48.25;101752.63;4998850;28;20041;-64
2022/08/22 00:39:42;;;;;;;9.67;4.50;;;;;;;24.82;48.41;101749.72;4996450;28;20034;-64
2022/08/22 00:42:31;;;;;;;6.82;3.97;;;;;;;24.82;48.52;101750.53;4990146;28;20523;-64
2022/08/22 00:45:15;;;;;;;6.20;4.03;;;;;;;24.83;48.33;101746.88;4996026;28;20085;-64
2022/08/22 00:48:10;;;;;;;10.70;3.80;;;;;;;24.84;48.55;101743.19;4994363;28;20041;-64
2022/08/22 00:51:19;;;;;;;8.10;4.20;;;;;;;24.88;48.36;101749.78;4967015;28;22125;-64
2022/08/22 00:54:20;;;;;;;7.53;4.00;;;;;;;24.85;48.37;101749.34;4996932;28;20033;-64
2022/08/22 00:57:09;;;;;;;8.45;4.10;;;;;;;24.92;48.33;101748.38;4992243;28;20117;-64
2022/08/22 01:00:08;;;;;;;5.60;3.55;;;;;;;24.88;48.34;101741.78;4993441;28;20423;-64
2022/08/22 01:02:56;;;;;;;5.53;3.95;;;;;;;24.82;48.21;101755.88;4994884;28;20145;-64
2022/08/22 01:05:40;;;;;;;7.53;4.30;;;;;;;24.89;48.35;101750.59;4997037;28;20589;-64
2022/08/22 01:08:38;;;;;;;6.53;3.70;;;;;;;24.74;48.20;101736.50;4995530;28;20056;-64
2022/08/22 01:11:34;;;;;;;7.63;4.00;;;;;;;24.87;48.14;101753.44;5002647;28;20049;-64
2022/08/22 01:14:35;;;;;;;7.10;3.90;;;;;;;24.84;48.38;101747.69;5000416;28;20044;-64
2022/08/22 01:17:19;;;;;;;5.68;3.70;;;;;;;24.88;48.29;101751.63;4981695;28;20100;-64
2022/08/22 01:20:15;;;;;;;6.90;3.78;;;;;;;24.84;48.43;101755.69;4999042;28;20088;-64
2022/08/22 01:23:08;;;;;;;8.57;4.15;;;;;;;24.85;48.37;101754.66;4999262;28;20029;-64
2022/08/22 01:26:11;;;;;;;7.97;4.20;;;;;;;24.83;48.42;101759.34;5000335;28;20048;-64
2022/08/22 01:29:14;;;;;;;7.30;4.30;;;;;;;24.86;48.33;101761.63;4998264;28;20038;-64
2022/08/22 01:32:06;;;;;;;6.47;4.00;;;;;;;24.87;48.48;101764.09;4999769;28;20030;-64
2022/08/22 01:35:14;;;;;;;6.53;4.10;;;;;;;24.88;48.40;101764.94;4999171;28;20101;-64
2022/08/22 01:37:42;;;;;;;8.20;4.03;;;;;;;24.87;48.41;101769.44;4999007;28;20522;-64
2022/08/22 01:40:45;;;;;;;6.22;4.05;;;;;;;24.82;48.56;101771.03;5002984;28;20092;-64
2022/08/22 01:43:27;;;;;;;6.80;3.97;;;;;;;24.84;48.64;101771.66;4996401;28;20353;-64
2022/08/22 01:46:30;;;;;;;8.07;3.95;;;;;;;24.82;48.71;101773.69;4996889;28;20601;-64
2022/08/22 01:49:14;;;;;;;10.00;4.05;;;;;;;24.84;48.56;101771.66;4996023;28;20061;-64
2022/08/22 01:51:52;;;;;;;7.95;4.35;;;;;;;24.85;48.52;101778.63;4997772;28;20411;-65
2022/08/22 01:54:35;;;;;;;6.75;4.35;;;;;;;24.86;48.38;101769.63;4999701;28;20044;-64
2022/08/22 01:57:04;;;;;;;9.20;4.03;;;;;;;24.83;48.57;101767.34;4994035;28;20038;-64
2022/08/22 01:59:38;;;;;;;7.18;3.70;;;;;;;24.75;48.72;101762.13;4999632;28;20396;-64
2022/08/22 02:02:03;;;;;;;6.35;4.03;;;;;;;24.82;48.64;101779.84;4998528;28;20474;-64
2022/08/22 02:04:52;;;;;;;6.20;3.90;;;;;;;24.82;48.62;101779.03;4993821;28;20056;-64
2022/08/22 02:07:26;;;;;;;6.63;3.83;;;;;;;24.83;48.81;101780.69;4999725;28;20034;-64
2022/08/22 02:10:18;;;;;;;8.85;4.07;;;;;;;24.83;48.73;101788.66;4983628;28;20033;-63
2022/08/22 02:12:53;;;;;;;6.60;3.83;;;;;;;24.83;48.62;101789.50;4992363;28;20038;-64
2022/08/22 02:15:39;;;;;;;7.90;4.07;;;;;;;24.81;48.88;101782.72;5000269;28;20072;-64
2022/08/22 02:18:05;;;;;;;6.93;3.97;;;;;;;24.85;48.50;101781.31;4957376;28;20145;-64
2022/08/22 02:21:01;;;;;;;8.35;4.55;;;;;;;24.81;48.53;101777.38;4958573;28;20685;-65
2022/08/22 02:23:42;;;;;;;6.80;3.70;;;;;;;24.75;49.00;101770.94;4960058;28;20138;-65
2022/08/22 02:26:20;;;;;;;6.70;3.65;;;;;;;24.80;48.60;101776.56;4959705;28;21534;-65
2022/08/22 02:29:03;;;;;;;5.00;3.30;;;;;;;24.80;48.66;101773.06;4956484;28;20485;-64
2022/08/22 02:31:43;;;;;;;8.10;3.35;;;;;;;24.82;48.69;101773.69;4957267;28;20542;-64
2022/08/22 02:34:30;;;;;;;6.03;3.75;;;;;;;24.83;48.72;101773.50;4956468;28;20061;-64
2022/08/22 02:37:07;;;;;;;5.65;4.28;;;;;;;24.84;48.57;101769.81;4968839;28;20027;-64
2022/08/22 02:40:03;;;;;;;7.85;3.75;;;;;;;24.81;48.74;101767.53;4962310;28;20054;-64
2022/08/22 02:42:57;;;;;;;6.18;4.05;;;;;;;24.77;48.75;101768.09;4956455;28;20520;-64
2022/08/22 02:45:43;;;;;;;6.22;3.80;;;;;;;24.77;48.76;101768.91;4959081;28;20534;-64
2022/08/22 02:48:18;;;;;;;6.32;3.47;;;;;;;24.80;48.85;101765.91;4960973;28;20712;-64
2022/08/22 02:51:11;;;;;;;6.07;3.97;;;;;;;24.74;48.62;101763.97;4959881;28;20047;-64
2022/08/22 02:53:49;;;;;;;7.03;3.58;;;;;;;24.75;48.76;101762.13;4957313;28;20049;-64
2022/08/22 02:56:26;;;;;;;6.25;3.90;;;;;;;24.75;48.79;101760.28;4958901;28;20049;-64
2022/08/22 02:58:54;;;;;;;5.90;3.60;;;;;;;24.75;48.95;101765.63;4959805;28;20512;-64
2022/08/22 03:01:35;;;;;;;7.80;3.90;;;;;;;24.68;49.11;101762.91;4954189;28;20039;-64
2022/08/22 03:04:22;;;;;;;7.50;3.88;;;;;;;24.74;49.00;101760.47;4956762;28;20035;-64
2022/08/22 03:06:57;;;;;;;6.20;3.88;;;;;;;24.77;48.91;101760.94;4962972;28;20680;-64
2022/08/22 03:09:34;;;;;;;6.60;3.47;;;;;;;24.67;48.94;101760.44;4961708;28;20038;-64
2022/08/22 03:12:18;;;;;;;8.43;3.63;;;;;;;24.69;48.97;101755.75;4955586;28;20385;-64
2022/08/22 03:15:05;;;;;;;7.22;3.67;;;;;;;24.74;49.04;101761.31;4959973;28;20046;-64
2022/08/22 03:17:44;;;;;;;6.93;3.80;;;;;;;24.76;48.92;101755.78;4991548;28;20107;-64
2022/08/22 03:20:18;;;;;;;4.82;3.70;;;;;;;24.77;48.92;101750.28;4997246;28;20045;-64
2022/08/22 03:23:08;;;;;;;7.40;3.78;;;;;;;24.77;48.95;101747.59;4995285;28;20396;-64
2022/08/22 03:25:51;;;;;;;5.20;3.70;;;;;;;24.67;48.86;101755.94;4990793;28;20372;-65
2022/08/22 03:28:30;;;;;;;7.30;3.92;;;;;;;24.70;48.96;101744.88;4991292;28;20038;-64
2022/08/22 03:31:05;;;;;;;6.20;3.45;;;;;;;24.68;49.00;101749.59;4993091;28;20737;-64
2022/08/22 03:33:31;;;;;;;5.30;3.60;;;;;;;24.71;48.84;101749.19;4995022;28;20480;-64
2022/08/22 03:36:08;;;;;;;7.70;3.80;;;;;;;24.71;48.91;101738.53;4993912;28;20038;-64
2022/08/22 03:38:33;;;;;;;6.15;3.63;;;;;;;24.70;48.99;101739.56;4981315;28;20510;-65
2022/08/22 03:41:28;;;;;;;7.65;3.92;;;;;;;24.63;49.15;101730.69;4996277;28;20042;-64
2022/08/22 03:44:05;;;;;;;8.65;3.90;;;;;;;24.70;48.94;101736.91;4997181;28;20436;-64
2022/08/22 03:46:50;;;;;;;5.75;3.88;;;;;;;24.67;49.04;101742.63;4995864;28;20131;-64
2022/08/22 03:49:46;;;;;;;5.43;3.80;;;;;;;24.67;48.98;101742.63;4996009;28;21969;-64
2022/08/22 03:52:18;;;;;;;7.95;3.67;;;;;;;24.71;48.55;101745.72;4995862;28;20034;-64
2022/08/22 03:55:02;;;;;;;6.18;3.60;;;;;;;24.67;48.76;101747.13;4997185;28;20079;-64
2022/08/22 03:57:57;;;;;;;7.00;4.50;;;;;;;24.71;48.91;101741.22;4995822;28;20037;-64
2022/08/22 04:00:47;;;;;;;7.95;4.07;;;;;;;24.69;48.94;101742.41;4990951;28;20515;-64
2022/08/22 04:03:35;;;;;;;6.47;3.97;;;;;;;24.65;48.85;101746.47;4993295;28;20045;-64
2022/08/22 04:06:31;;;;;;;7.82;4.05;;;;;;;24.66;49.02;101742.81;4994008;28;20037;-64
2022/08/22 04:09:23;;;;;;;6.53;4.18;;;;;;;24.71;48.72;101748.38;4995667;28;20034;-65
2022/08/22 04:12:25;;;;;;;6.03;3.80;;;;;;;24.68;49.05;101744.25;4996545;28;20042;-64
2022/08/22 04:15:23;;;;;;;6.40;3.92;;;;;;;24.67;48.97;101749.78;4977447;28;20042;-64
2022/08/22 04:18:27;;;;;;;7.00;4.00;;;;;;;24.66;48.99;101745.47;4995448;28;20061;-64
2022/08/22 04:20:55;;;;;;;6.40;3.67;;;;;;;24.62;49.00;101747.69;4995908;28;20034;-65
2022/08/22 04:23:30;;;;;;;8.20;3.88;;;;;;;24.64;48.81;101748.31;4998113;28;20030;-64
2022/08/22 04:26:22;;;;;;;5.93;3.97;;;;;;;24.62;49.05;101733.56;4996654;28;20038;-64
2022/08/22 04:28:55;;;;;;;4.47;3.53;;;;;;;24.63;48.93;101741.34;4942673;28;20050;-64
2022/08/22 04:31:31;;;;;;;7.15;3.70;;;;;;;24.61;48.95;101743.38;5000715;28;20479;-64
2022/08/22 04:34:06;;;;;;;7.65;3.70;;;;;;;24.64;48.62;101740.34;4993808;28;20603;-64
2022/08/22 04:36:38;;;;;;;5.15;3.40;;;;;;;24.64;48.77;101751.00;4999325;28;20494;-65
2022/08/22 04:39:07;;;;;;;6.13;3.67;;;;;;;24.65;48.99;101751.81;4997842;28;20049;-64
2022/08/22 04:41:46;;;;;;;6.90;3.85;;;;;;;24.66;48.75;101753.47;4997991;28;20038;-64
2022/08/22 04:44:24;;;;;;;;;;;;;;;24.65;48.66;101768.63;4993251;28;20049;-64
2022/08/22 04:47:12;;;;;;;8.32;3.90;;;;;;;24.63;48.93;101767.16;5003264;28;19968;-64
2022/08/22 04:49:58;;;;;;;6.95;4.05;;;;;;;24.60;48.99;101765.69;5000149;28;20030;-64
2022/08/22 04:52:53;;;;;;;5.60;3.55;;;;;;;24.64;48.96;101779.47;4998988;28;20119;-64
2022/08/22 04:55:56;;;;;;;6.28;4.05;;;;;;;24.61;48.99;101774.50;5000074;28;20034;-64
2022/08/22 04:58:35;;;;;;;9.10;4.13;;;;;;;24.61;48.93;101778.00;4996636;28;20650;-63
2022/08/22 05:01:09;;;;;;;6.72;3.72;;;;;;;24.61;49.02;101779.84;4999714;28;20049;-64
2022/08/22 05:03:40;;;;;;;5.72;3.53;;;;;;;24.62;48.91;101786.81;4999477;28;20053;-64
2022/08/22 05:06:08;;;;;;;7.00;4.18;;;;;;;24.58;49.08;101780.19;4998912;28;20129;-64
2022/08/22 05:08:38;;;;;;;6.43;3.85;;;;;;;24.56;49.03;101783.03;5002775;28;20105;-65
2022/08/22 05:11:06;;;;;;;;;;;;;;;24.56;49.04;101785.72;5000673;28;20034;-64
2022/08/22 05:13:42;;;;;;;8.95;4.55;;;;;;;24.59;49.02;101785.31;4980801;28;19953;-64
2022/08/22 05:16:19;;;;;;;5.93;3.65;;;;;;;24.59;48.93;101780.00;4998958;28;20157;-64
2022/08/22 05:18:50;;;;;;;7.85;4.15;;;;;;;24.63;48.93;101786.63;4997930;28;20073;-64
2022/08/22 05:21:23;;;;;;;6.07;3.88;;;;;;;24.58;49.04;101782.84;5000055;28;20034;-64
2022/08/22 05:24:03;;;;;;;6.55;3.58;;;;;;;24.63;48.90;101789.28;4996538;28;20041;-64
2022/08/22 05:26:39;;;;;;;7.07;4.13;;;;;;;24.58;48.97;101785.50;4996615;28;20037;-64
2022/08/22 05:29:08;;;;;;;8.15;4.43;;;;;;;24.57;49.07;101781.22;4997298;28;20026;-64
2022/08/22 05:31:39;;;;;;;6.57;4.07;;;;;;;24.57;48.93;101790.03;5002049;28;20069;-64
2022/08/22 05:34:11;;;;;;;6.22;3.55;;;;;;;24.64;48.96;101796.25;4998936;28;20091;-64
2022/08/22 05:36:50;;;;;;;7.15;3.92;;;;;;;24.68;48.69;101788.72;5002326;28;20065;-64
2022/08/22 05:39:19;;;;;;;4.88;3.63;;;;;;;24.60;48.94;101795.00;5001975;28;20046;-64
2022/08/22 05:41:46;;;;;;;5.30;3.47;;;;;;;24.61;48.93;101796.66;5000747;28;21054;-64
2022/08/22 05:44:35;;;;;;;6.43;3.97;;;;;;;24.63;48.75;101799.13;4993960;28;20128;-64
2022/08/22 05:47:18;;;;;;;6.53;3.63;;;;;;;24.61;48.84;101803.81;4998500;28;20033;-64
2022/08/22 05:50:03;;;;;;;6.03;3.85;;;;;;;24.60;49.08;101800.31;4998657;28;20376;-64
2022/08/22 05:53:04;;;;;;;6.30;3.75;;;;;;;24.62;49.03;101800.94;4998300;28;20038;-64
2022/08/22 05:55:40;;;;;;;5.53;3.70;;;;;;;24.66;48.77;101799.56;4999371;28;20131;-64
2022/08/22 05:58:33;;;;;;;6.78;4.10;;;;;;;24.59;49.10;101805.81;4998906;28;20152;-64
2022/08/22 06:01:12;;;;;;;6.68;4.10;;;;;;;24.59;49.08;101806.63;4999804;28;20057;-64
2022/08/22 06:03:52;;;;;;;6.95;3.67;;;;;;;24.60;48.93;101802.16;4999897;28;20048;-64
2022/08/22 06:06:19;;;;;;;5.65;3.53;;;;;;;24.59;48.91;101806.63;5000024;28;20033;-64
2022/08/22 06:08:53;;;;;;;5.93;3.33;;;;;;;24.62;49.17;101810.78;5001947;28;20044;-64
2022/08/22 06:11:26;;;;;;;6.10;3.53;;;;;;;24.54;49.14;101806.38;5000384;28;20091;-64
2022/08/22 06:14:01;;;;;;;4.97;3.70;;;;;;;24.57;48.83;101803.34;4997515;28;20041;-64
2022/08/22 06:16:54;;;;;;;7.18;3.70;;;;;;;24.57;48.95;101808.66;5000442;28;20057;-64
2022/08/22 06:19:20;;;;;;;10.45;4.03;;;;;;;24.62;48.88;101805.47;4998900;28;21778;-64
2022/08/22 06:21:49;;;;;;;7.18;4.07;;;;;;;24.62;48.90;101808.13;4999538;28;20057;-64
2022/08/22 06:24:21;;;;;;;7.70;4.20;;;;;;;24.61;49.05;101812.63;4995192;28;20045;-64
2022/08/22 06:26:50;;;;;;;6.40;4.03;;;;;;;24.63;48.94;101815.09;4998845;28;20448;-64
2022/08/22 06:29:33;;;;;;;7.80;4.27;;;;;;;24.53;49.23;101812.72;4995725;28;20034;-64
2022/08/22 06:32:02;;;;;;;7.28;3.97;;;;;;;24.62;48.90;101811.59;4998905;28;21084;-64
2022/08/22 06:34:38;;;;;;;5.13;3.70;;;;;;;24.59;49.02;101814.63;4995509;28;20649;-64
2022/08/22 06:37:09;;;;;;;8.15;4.00;;;;;;;24.57;49.20;101821.97;4999393;28;20078;-64
2022/08/22 06:39:40;;;;;;;7.55;3.90;;;;;;;24.58;49.25;101812.97;5000717;28;20364;-64
2022/08/22 06:42:12;;;;;;;7.25;4.13;;;;;;;24.55;49.14;101816.00;4997838;28;20140;-64
2022/08/22 06:44:52;;;;;;;5.13;3.33;;;;;;;24.63;49.03;101817.75;4976189;28;20034;-64
2022/08/22 06:47:22;;;;;;;;;;;;;;;24.54;49.15;101824.19;5000385;28;20104;-64
2022/08/22 06:49:54;;;;;;;8.70;4.45;;;;;;;24.59;49.17;101829.78;5000954;28;19921;-64
2022/08/22 06:52:25;;;;;;;7.35;3.67;;;;;;;24.60;48.93;101828.78;4996593;28;20046;-65
2022/08/22 06:54:59;;;;;;;11.88;4.25;;;;;;;24.41;49.43;101840.81;4998961;28;20080;-65
2022/08/22 06:57:35;;;;;;;11.98;5.15;;;;;;;24.28;49.69;101827.34;4996612;28;20806;-65
2022/08/22 07:00:07;;;;;;;17.77;5.68;;;;;;;24.26;49.97;101837.34;4979990;28;20038;-65
2022/08/22 07:02:41;;;;;;;12.80;5.40;;;;;;;24.22;50.08;101830.72;5000683;28;20038;-65
2022/08/22 07:05:15;;;;;;;12.02;4.97;;;;;;;24.18;50.15;101832.94;4998667;28;20137;-65
2022/08/22 07:07:41;;;;;;;12.73;4.43;;;;;;;24.11;50.29;101835.50;5000238;28;20044;-65
2022/08/22 07:10:11;;;;;;;11.02;4.03;;;;;;;24.14;50.36;101836.97;4994277;28;20033;-65
2022/08/22 07:12:37;;;;;;;16.23;5.60;;;;;;;24.06;50.45;101832.59;4998177;28;20045;-64
2022/08/22 07:15:38;;;;;;;21.15;4.95;;;;;;;23.75;51.28;101837.22;4998004;28;20049;-64
2022/08/22 07:18:28;;;;;;;18.92;5.78;;;;;;;23.64;51.74;101822.53;4967846;28;20407;-64
2022/08/22 07:20:58;;;;;;;10.80;4.57;;;;;;;23.84;51.32;101827.31;4995278;28;20582;-64
2022/08/22 07:23:39;;;;;;;;;;;;;;;23.90;50.91;101830.09;4997787;28;20121;-64
2022/08/22 07:26:04;;;;;;;18.00;4.82;;;;;;;23.95;50.90;101825.03;4999074;28;20294;-64
2022/08/22 07:28:45;;;;;;;14.43;4.60;;;;;;;23.99;51.10;101833.47;4996688;28;20051;-64
2022/08/22 07:31:32;;;;;;;11.77;4.45;;;;;;;24.01;51.04;101832.28;4997905;28;20922;-65
2022/08/22 07:34:19;;;;;;;8.70;4.03;;;;;;;24.01;50.63;101826.97;4998691;28;20072;-64
2022/08/22 07:36:56;;;;;;;13.75;5.10;;;;;;;24.03;50.88;101829.44;4996978;28;20042;-65
2022/08/22 07:39:34;;;;;;;16.92;5.90;;;;;;;24.05;50.81;101827.41;4999690;28;20145;-64
2022/08/22 07:42:05;;;;;;;9.45;4.82;;;;;;;24.01;51.00;101828.81;4999486;28;20039;-64
2022/08/22 07:45:12;;;;;;;11.32;4.55;;;;;;;24.07;50.86;101826.25;4998552;28;20042;-64
2022/08/22 07:48:10;;;;;;;9.00;4.35;;;;;;;24.05;50.94;101825.56;4997752;28;20119;-64
2022/08/22 07:50:50;;;;;;;13.02;4.85;;;;;;;24.05;50.86;101824.75;4998337;28;20034;-64
2022/08/22 07:53:34;;;;;;;11.98;4.78;;;;;;;24.01;50.94;101823.47;5000620;28;20389;-64
2022/08/22 07:56:02;;;;;;;10.23;4.07;;;;;;;24.07;50.63;101825.44;4999411;28;20091;-64
2022/08/22 07:58:30;;;;;;;15.27;5.30;;;;;;;24.02;51.15;101823.28;4996608;28;20108;-64
2022/08/22 08:00:57;;;;;;;12.98;4.60;;;;;;;24.10;50.71;101822.38;4982352;28;20091;-64
2022/08/22 08:03:26;;;;;;;15.10;4.65;;;;;;;24.10;50.88;101823.22;4999417;28;20088;-64
2022/08/22 08:05:52;;;;;;;13.07;4.20;;;;;;;24.09;50.87;101818.06;4998652;28;20046;-64
2022/08/22 08:08:30;;;;;;;14.23;4.65;;;;;;;24.05;51.08;101819.44;4997392;28;20040;-64
2022/08/22 08:10:58;;;;;;;14.43;4.72;;;;;;;24.06;51.14;101816.63;5000836;28;20033;-64
2022/08/22 08:13:38;;;;;;;13.35;4.53;;;;;;;24.14;51.00;101823.66;4997347;28;20029;-64
2022/08/22 08:16:07;;;;;;;15.80;5.15;;;;;;;24.02;51.04;101810.00;4995810;28;20044;-64
2022/08/22 08:18:35;;;;;;;13.15;5.15;;;;;;;24.31;50.52;101814.50;4989374;28;20040;-64
2022/08/22 08:21:05;;;;;;;14.88;5.35;;;;;;;24.48;50.29;101795.66;5002913;28;20088;-65
2022/08/22 08:23:39;;;;;;;19.58;5.85;;;;;;;24.36;51.00;101811.28;4996580;28;20724;-65
2022/08/22 08:26:08;;;;;;;15.15;6.25;;;;;;;24.35;50.66;101806.97;4982788;28;20072;-65
2022/08/22 08:28:40;;;;;;;20.15;6.15;;;;;;;24.19;51.23;101812.47;4997565;28;20026;-64
2022/08/22 08:31:19;;;;;;;14.50;5.70;;;;;;;23.71;52.39;101807.53;5002908;28;20522;-64
2022/08/22 08:33:47;;;;;;;15.00;5.00;;;;;;;23.92;52.04;101800.66;4998658;28;20045;-64
2022/08/22 08:36:52;;;;;;;16.95;6.05;;;;;;;23.66;52.65;101801.91;4999605;28;20119;-64
2022/08/22 08:39:36;;;;;;;21.63;6.47;;;;;;;24.13;52.04;101803.38;4995986;28;20030;-65
2022/08/22 08:42:21;;;;;;;15.38;5.47;;;;;;;23.79;53.06;101798.63;5001691;28;20561;-65
2022/08/22 08:45:26;;;;;;;16.20;6.03;;;;;;;24.07;52.47;101798.81;4999743;28;20050;-65
2022/08/22 08:48:12;;;;;;;23.65;5.40;;;;;;;23.85;52.85;101789.06;5000090;28;20086;-64
2022/08/22 08:51:02;;;;;;;14.05;5.95;;;;;;;23.90;52.81;101797.34;4996293;28;20488;-64
2022/08/22 08:53:49;;;;;;;19.67;6.18;;;;;;;24.00;52.49;101788.06;4999563;28;20037;-65
2022/08/22 08:56:27;;;;;;;22.23;6.05;;;;;;;23.98;52.37;101794.59;4999967;28;20030;-65
2022/08/22 08:59:06;;;;;;;18.02;6.40;;;;;;;23.93;52.44;101800.47;4983837;28;20051;-67
2022/08/22 09:02:20;;;;;;;19.88;6.00;;;;;;;23.81;52.94;101799.25;4999585;28;20034;-64
2022/08/22 09:05:19;;;;;;;21.42;5.60;;;;;;;23.98;52.44;101792.75;4977483;28;20686;-64
2022/08/22 09:07:51;;;;;;;13.52;4.60;;;;;;;24.11;51.97;101789.44;4979950;28;20056;-66
2022/08/22 09:10:43;;;;;;;13.88;4.35;;;;;;;24.10;51.85;101796.59;5004594;28;20033;-64
2022/08/22 09:13:34;;;;;;;18.63;5.65;;;;;;;24.23;51.30;101793.25;4987080;28;20497;-64
2022/08/22 09:16:08;;;;;;;19.30;4.70;;;;;;;24.25;51.24;101801.09;5001939;28;20127;-64
2022/08/22 09:19:05;;;;;;;13.75;4.68;;;;;;;24.26;51.20;101800.91;4995307;28;20488;-64
2022/08/22 09:21:59;;;;;;;14.75;4.90;;;;;;;24.19;51.59;101793.84;4996607;28;20484;-64
2022/08/22 09:24:59;;;;;;;19.80;4.85;;;;;;;24.20;51.19;101790.97;4997295;28;20455;-64
2022/08/22 09:27:36;;;;;;;11.38;4.70;;;;;;;24.19;51.19;101796.50;5002248;28;20034;-65
2022/08/22 09:30:03;;;;;;;12.77;4.32;;;;;;;24.26;50.94;101795.59;4992971;28;20042;-65
2022/08/22 09:32:41;;;;;;;12.10;4.50;;;;;;;24.26;50.76;101789.44;4984284;28;20057;-64
2022/08/22 09:35:36;;;;;;;15.25;4.40;;;;;;;24.34;50.34;101792.84;4992347;28;20073;-64
2022/08/22 09:38:25;;;;;;;16.73;4.60;;;;;;;24.28;50.57;101790.06;5003404;28;20161;-64
2022/08/22 09:40:50;;;;;;;17.10;4.43;;;;;;;24.37;50.29;101791.63;5005878;28;20084;-64
2022/08/22 09:43:37;;;;;;;15.30;4.15;;;;;;;24.29;50.54;101792.56;5001633;28;20057;-64
2022/08/22 09:46:19;;;;;;;14.65;4.32;;;;;;;24.32;50.40;101796.69;4999109;28;20088;-65
2022/08/22 09:48:48;;;;;;;13.48;4.30;;;;;;;24.31;50.45;101792.38;5001702;28;20147;-65
2022/08/22 09:51:37;;;;;;;13.87;4.33;;;;;;;24.28;50.35;101785.56;5005189;28;20301;-64
2022/08/22 09:54:12;;;;;;;16.00;4.63;;;;;;;24.30;50.38;101788.06;4984319;28;20518;-65
2022/08/22 09:57:16;;;;;;;13.00;3.88;;;;;;;24.34;50.08;101782.19;4985016;28;20119;-64
2022/08/22 10:00:00;;;;;;;12.57;3.92;;;;;;;24.31;50.18;101769.25;4944576;28;20683;-65
2022/08/22 10:02:47;;;;;;;16.02;4.68;;;;;;;24.41;50.28;101775.09;4997780;28;20029;-65
2022/08/22 10:05:36;;;;;;;18.83;4.72;;;;;;;24.41;50.15;101771.59;4997400;28;20034;-65
2022/08/22 10:08:31;;;;;;;12.38;4.07;;;;;;;24.35;50.22;101770.53;4997951;28;20117;-64
2022/08/22 10:11:12;;;;;;;12.20;4.50;;;;;;;24.37;50.23;101759.69;4965953;28;20041;-64
2022/08/22 10:13:45;;;;;;;12.95;4.35;;;;;;;24.41;50.20;101764.44;4997441;28;20116;-64
2022/08/22 10:16:52;;;;;;;12.57;4.32;;;;;;;24.41;50.16;101752.97;5000018;28;20506;-64
2022/08/22 10:19:32;;;;;;;11.55;3.63;;;;;;;24.46;50.10;101752.44;5000913;28;20037;-64
2022/08/22 10:22:23;;;;;;;8.50;3.67;;;;;;;24.46;49.82;101758.56;4983867;28;20038;-64
2022/08/22 10:25:08;;;;;;;12.95;4.70;;;;;;;24.36;50.06;101756.19;5000868;28;20046;-65
2022/08/22 10:27:44;;;;;;;10.43;3.97;;;;;;;24.42;50.08;101757.31;4995915;28;20040;-65
2022/08/22 10:30:31;;;;;;;14.63;4.53;;;;;;;24.43;49.73;101761.63;4998509;28;20042;-64
2022/08/22 10:33:34;;;;;;;13.20;4.30;;;;;;;24.50;49.54;101754.53;5000960;28;20120;-65
2022/08/22 10:36:09;;;;;;;11.23;4.20;;;;;;;24.42;49.85;101749.31;4993075;28;20033;-64
2022/08/22 10:38:54;;;;;;;13.48;4.13;;;;;;;24.41;49.74;101748.47;4996355;28;20037;-64
2022/08/22 10:41:29;;;;;;;11.73;4.72;;;;;;;24.55;49.79;101761.94;4992117;28;20383;-64
2022/08/22 10:44:20;;;;;;;12.63;4.28;;;;;;;24.48;49.85;101750.41;4997665;28;20046;-65
2022/08/22 10:46:52;;;;;;;12.27;4.53;;;;;;;24.48;49.89;101755.72;4995919;28;20050;-65
2022/08/22 10:49:30;;;;;;;12.30;4.18;;;;;;;24.53;49.72;101755.97;4998170;28;20037;-64
2022/08/22 10:52:02;;;;;;;14.40;4.18;;;;;;;24.53;49.67;101763.97;5001251;28;20450;-65
2022/08/22 10:55:13;;;;;;;14.35;4.50;;;;;;;24.52;49.57;101776.44;4997511;28;20041;-65
2022/08/22 10:58:03;;;;;;;17.42;4.97;;;;;;;24.53;49.57;101767.44;4979827;28;20088;-65
2022/08/22 11:00:53;;;;;;;10.45;4.65;;;;;;;24.48;49.63;101763.72;4995718;28;20808;-64
2022/08/22 11:03:23;;;;;;;9.95;4.57;;;;;;;24.52;49.34;101759.66;5000925;28;20033;-65
2022/08/22 11:05:52;;;;;;;12.30;4.47;;;;;;;24.59;49.23;101760.53;4994396;28;20045;-65
2022/08/22 11:08:31;;;;;;;12.13;4.45;;;;;;;24.57;49.45;101762.56;4996863;28;21805;-65
2022/08/22 11:11:21;;;;;;;10.57;4.20;;;;;;;24.48;49.36;101763.72;4994820;28;20042;-64
2022/08/22 11:14:11;;;;;;;8.77;4.43;;;;;;;24.52;49.34;101760.47;5000757;28;20046;-65
2022/08/22 11:17:21;;;;;;;14.27;4.90;;;;;;;24.51;49.29;101750.84;4999187;28;20523;-64
2022/08/22 11:20:08;;;;;;;14.02;5.20;;;;;;;24.53;49.41;101753.31;4996363;28;20104;-65
2022/08/22 11:23:02;;;;;;;8.40;4.20;;;;;;;24.52;49.20;101749.81;5001141;28;20077;-64
2022/08/22 11:25:48;;;;;;;11.82;4.28;;;;;;;24.49;49.43;101739.56;4999419;28;20042;-65
2022/08/22 11:28:58;;;;;;;11.88;4.68;;;;;;;24.57;49.19;101744.75;4999303;28;20404;-64
2022/08/22 11:31:48;;;;;;;13.60;4.57;;;;;;;24.58;49.27;101740.25;4937385;28;20487;-65
2022/08/22 11:34:36;;;;;;;9.10;4.40;;;;;;;24.52;49.34;101738.34;4993817;28;20448;-65
2022/08/22 11:37:13;;;;;;;17.58;4.97;;;;;;;24.60;48.12;101728.41;4957165;28;21659;-64
2022/08/22 11:39:57;;;;;;;10.10;4.90;;;;;;;24.77;46.48;101738.78;5000729;28;20666;-62
2022/08/22 11:43:00;;;;;;;16.40;5.60;;;;;;;24.77;47.46;101733.47;4999215;28;20049;-63
2022/08/22 11:45:33;;;;;;;12.32;5.18;;;;;;;24.92;46.49;101735.03;4998503;28;20034;-64
2022/08/22 11:48:06;;;;;;;12.00;4.60;;;;;;;25.32;46.09;101726.59;4999059;28;20041;-65
2022/08/22 11:51:23;;;;;;;13.93;4.43;;;;;;;25.47;45.90;101722.78;5000994;28;20084;-63
2022/08/22 11:53:59;;;;;;;15.07;4.78;;;;;;;25.76;44.60;101721.75;4961311;28;20104;-63
2022/08/22 11:56:42;;;;;;;11.25;4.82;;;;;;;25.79;44.17;101721.34;4993833;28;20053;-63
2022/08/22 11:59:42;;;;;;;15.38;4.72;;;;;;;25.76;44.38;101718.25;4982605;28;20042;-63
2022/08/22 12:02:20;;;;;;;15.00;5.05;;;;;;;25.94;43.50;101715.06;4964802;28;20086;-65
2022/08/22 12:04:53;;;;;;;18.35;5.90;;;;;;;25.86;43.10;101708.06;4996865;28;20124;-63
2022/08/22 12:07:28;;;;;;;11.15;4.95;;;;;;;25.81;42.52;101705.13;4996071;28;20085;-65
2022/08/22 12:10:01;;;;;;;12.77;5.45;;;;;;;25.67;42.83;101709.53;4974858;28;20033;-64
2022/08/22 12:13:02;;;;;;;15.35;5.32;;;;;;;25.46;42.93;101709.63;4994516;28;20100;-64
2022/08/22 12:15:32;;;;;;;9.68;4.32;;;;;;;25.59;43.47;101704.38;4995020;28;20053;-65
2022/08/22 12:18:30;;;;;;;10.30;4.45;;;;;;;25.77;43.45;101699.38;4977233;28;20070;-64
2022/08/22 12:21:20;;;;;;;17.23;4.78;;;;;;;25.69;43.15;101707.56;4994287;28;20049;-63
2022/08/22 12:23:54;;;;;;;12.27;4.80;;;;;;;25.68;43.00;101697.09;4996291;28;20188;-66
2022/08/22 12:26:36;;;;;;;12.15;4.50;;;;;;;25.59;42.99;101699.88;4976828;28;20030;-63
2022/08/22 12:29:39;;;;;;;9.55;4.38;;;;;;;25.79;42.99;101702.69;4997444;28;20041;-63
2022/08/22 12:32:32;;;;;;;8.50;4.15;;;;;;;25.94;42.36;101697.19;4995412;28;20069;-62